Time;durP1;ratioP1;P1;durP2;ratioP2;P2;SDS_P1;SDS_P2;PMS_P1;PMS_P2;Temp;Humidity;BMP_temperature;BMP_pressure;BME280_temperature;BME280_humidity;BME280_pressure;Samples;Min_cycle;Max_cycle;Signal;HPM_P1;HPM_P2
2023/11/29 00:01:13;;;;;;;11.30;7.68;;;0.00;1.00;;;;;;7378122;19;20383;-69
2023/11/29 00:03:43;;;;;;;9.52;6.60;;;0.10;1.00;;;;;;7377580;19;20022;-68
2023/11/29 00:06:13;;;;;;;8.57;6.53;;;0.00;1.00;;;;;;7374460;19;20010;-69
2023/11/29 00:08:45;;;;;;;11.07;6.90;;;0.10;1.00;;;;;;7377454;19;20036;-69
2023/11/29 00:11:15;;;;;;;9.68;6.97;;;0.00;1.00;;;;;;7378565;19;20371;-70
2023/11/29 00:13:45;;;;;;;10.13;6.80;;;0.00;1.00;;;;;;7377135;19;20018;-69
2023/11/29 00:16:15;;;;;;;12.00;7.78;;;0.00;1.00;;;;;;7375871;19;20010;-68
2023/11/29 00:18:45;;;;;;;11.25;7.43;;;0.00;1.00;;;;;;7377157;19;20018;-70
2023/11/29 00:21:16;;;;;;;11.15;7.57;;;0.00;1.00;;;;;;7378326;19;20014;-69
2023/11/29 00:23:48;;;;;;;12.93;8.77;;;0.00;1.00;;;;;;7377646;19;20039;-69
2023/11/29 00:26:22;;;;;;;10.88;7.05;;;0.00;1.00;;;;;;7377568;19;20535;-69
2023/11/29 00:28:54;;;;;;;10.82;7.32;;;-0.10;1.00;;;;;;7378916;19;20011;-69
2023/11/29 00:31:24;;;;;;;11.70;7.55;;;-0.20;1.00;;;;;;7378387;19;20017;-69
2023/11/29 00:33:54;;;;;;;11.02;7.28;;;-0.20;1.00;;;;;;7377374;19;20044;-69
2023/11/29 00:36:24;;;;;;;9.90;7.53;;;-0.20;1.00;;;;;;7377277;19;20494;-69
2023/11/29 00:38:57;;;;;;;13.10;8.30;;;-0.30;1.00;;;;;;7376552;19;20013;-68
2023/11/29 00:41:27;;;;;;;12.55;7.93;;;-0.20;1.00;;;;;;7377962;19;20030;-69
2023/11/29 00:43:57;;;;;;;13.35;8.30;;;-0.30;1.00;;;;;;7373981;19;20014;-69
2023/11/29 00:46:28;;;;;;;12.88;8.13;;;-0.30;1.00;;;;;;7375858;19;20014;-69
2023/11/29 00:48:58;;;;;;;12.30;7.50;;;-0.30;1.00;;;;;;7377932;19;20041;-69
2023/11/29 00:51:29;;;;;;;14.73;8.57;;;-0.30;1.00;;;;;;7377717;19;20789;-70
2023/11/29 00:54:01;;;;;;;14.60;9.27;;;-0.30;1.00;;;;;;7376258;19;20342;-69
2023/11/29 00:56:32;;;;;;;13.95;8.93;;;-0.30;1.00;;;;;;7371533;19;20017;-69
2023/11/29 00:59:02;;;;;;;15.18;9.13;;;-0.30;1.00;;;;;;7375294;19;20035;-69
2023/11/29 01:01:32;;;;;;;15.73;9.25;;;-0.30;1.00;;;;;;7375213;19;20022;-69
2023/11/29 01:04:03;;;;;;;15.02;9.30;;;-0.30;1.00;;;;;;7375397;19;20014;-70
2023/11/29 01:06:33;;;;;;;15.35;9.80;;;-0.40;1.00;;;;;;7375253;19;20026;-69
2023/11/29 01:09:06;;;;;;;12.82;7.95;;;-0.40;1.00;;;;;;7372602;19;20639;-69
2023/11/29 01:11:36;;;;;;;14.40;9.75;;;-0.40;1.00;;;;;;7375497;19;20011;-70
2023/11/29 01:14:06;;;;;;;15.70;9.40;;;-0.40;1.00;;;;;;7375138;19;20018;-69
2023/11/29 01:16:37;;;;;;;16.02;9.82;;;-0.40;1.00;;;;;;7404051;19;20014;-69
2023/11/29 01:19:07;;;;;;;16.98;10.13;;;-0.30;1.00;;;;;;7384494;19;20018;-69
2023/11/29 01:21:38;;;;;;;14.75;9.50;;;-0.30;1.00;;;;;;7375331;19;20090;-69
2023/11/29 01:24:11;;;;;;;16.15;10.18;;;-0.30;1.00;;;;;;7373535;19;20014;-69
2023/11/29 01:26:41;;;;;;;19.52;10.48;;;-0.20;1.00;;;;;;7374076;19;20026;-69
2023/11/29 01:29:11;;;;;;;16.27;10.63;;;-0.20;1.00;;;;;;7374564;19;20014;-70
2023/11/29 01:31:41;;;;;;;16.48;10.80;;;-0.20;1.00;;;;;;7374219;19;20016;-70
2023/11/29 01:34:11;;;;;;;15.98;10.25;;;-0.20;1.00;;;;;;7373027;19;20011;-70
2023/11/29 01:36:43;;;;;;;17.10;11.20;;;-0.10;1.00;;;;;;7373005;19;20017;-69
2023/11/29 01:39:16;;;;;;;17.90;10.43;;;-0.10;1.00;;;;;;7372878;19;20010;-70
2023/11/29 01:41:46;;;;;;;17.58;10.70;;;-0.10;1.00;;;;;;7374132;19;20006;-70
2023/11/29 01:44:16;;;;;;;18.42;11.30;;;0.00;1.00;;;;;;7372045;19;20011;-69
2023/11/29 01:46:47;;;;;;;17.80;10.70;;;0.00;1.00;;;;;;7372319;19;20006;-69
2023/11/29 01:49:20;;;;;;;17.45;10.38;;;0.00;1.00;;;;;;7372638;19;20043;-70
2023/11/29 01:51:51;;;;;;;19.90;11.02;;;0.00;1.00;;;;;;7371752;19;20366;-69
2023/11/29 01:54:24;;;;;;;16.80;10.88;;;0.00;1.00;;;;;;7373288;19;20012;-69
2023/11/29 01:56:54;;;;;;;18.33;11.40;;;-0.10;1.00;;;;;;7373084;19;20002;-69
2023/11/29 01:59:24;;;;;;;18.33;11.48;;;0.00;1.00;;;;;;7373180;19;20007;-69
2023/11/29 02:01:54;;;;;;;19.17;11.77;;;0.00;1.00;;;;;;7372457;19;20010;-68
2023/11/29 02:04:24;;;;;;;19.67;11.57;;;0.00;1.00;;;;;;7371764;19;20061;-68
2023/11/29 02:06:54;;;;;;;19.20;11.32;;;0.00;1.00;;;;;;7371844;19;20007;-68
2023/11/29 02:09:27;;;;;;;18.10;11.52;;;0.00;1.00;;;;;;7372843;19;20014;-68
2023/11/29 02:11:57;;;;;;;19.65;12.23;;;-0.10;1.00;;;;;;7373260;19;20070;-68
2023/11/29 02:14:27;;;;;;;16.33;10.95;;;-0.10;1.00;;;;;;7373128;19;20031;-67
2023/11/29 02:16:57;;;;;;;21.75;12.75;;;-0.20;1.00;;;;;;7372216;19;20712;-68
2023/11/29 02:19:27;;;;;;;21.95;12.32;;;-0.20;1.00;;;;;;7372422;19;20003;-68
2023/11/29 02:21:58;;;;;;;19.38;12.35;;;-0.20;1.00;;;;;;7371761;19;20011;-68
2023/11/29 02:24:35;;;;;;;19.67;12.55;;;-0.20;1.00;;;;;;7372398;19;20006;-68
2023/11/29 02:27:08;;;;;;;19.30;10.98;;;-0.30;1.00;;;;;;7368595;19;20006;-68
2023/11/29 02:29:39;;;;;;;19.58;11.75;;;-0.30;1.00;;;;;;7374255;19;20028;-68
2023/11/29 02:32:09;;;;;;;19.60;12.15;;;-0.40;1.00;;;;;;7379980;19;20006;-68
2023/11/29 02:34:39;;;;;;;18.88;11.85;;;-0.50;1.00;;;;;;7378336;19;20017;-68
2023/11/29 02:37:09;;;;;;;19.55;12.38;;;-0.60;1.00;;;;;;7378001;19;20452;-68
2023/11/29 02:39:39;;;;;;;17.13;10.75;;;-0.70;1.00;;;;;;7378139;19;20356;-68
2023/11/29 02:42:12;;;;;;;18.00;11.45;;;-0.70;1.00;;;;;;7379978;19;20014;-68
2023/11/29 02:44:42;;;;;;;18.90;11.07;;;-0.70;3.20;;;;;;7379704;19;20014;-68
2023/11/29 02:47:12;;;;;;;19.08;10.93;;;-0.70;5.30;;;;;;7377345;19;20355;-68
2023/11/29 02:49:42;;;;;;;18.45;11.10;;;-0.70;7.30;;;;;;7378726;19;20454;-68
2023/11/29 02:52:14;;;;;;;21.77;11.82;;;-0.80;9.30;;;;;;7379254;19;20039;-67
2023/11/29 02:54:44;;;;;;;17.15;10.15;;;-0.70;13.10;;;;;;7378564;19;20007;-68
2023/11/29 02:57:17;;;;;;;21.67;12.02;;;-0.70;15.70;;;;;;7377286;19;20010;-68
2023/11/29 02:59:47;;;;;;;21.85;11.55;;;-0.70;15.50;;;;;;7372900;19;20015;-67
2023/11/29 03:02:17;;;;;;;22.48;11.38;;;-0.60;14.40;;;;;;7378295;19;20018;-68
2023/11/29 03:04:49;;;;;;;19.20;10.60;;;-0.60;8.40;;;;;;7378436;19;20010;-68
2023/11/29 03:07:18;;;;;;;19.33;10.15;;;-0.50;1.80;;;;;;7377227;19;20014;-68
2023/11/29 03:09:48;;;;;;;15.60;10.07;;;-0.50;1.00;;;;;;7378750;19;20006;-67
2023/11/29 03:12:21;;;;;;;17.92;10.45;;;-0.40;1.00;;;;;;7379068;19;20010;-68
2023/11/29 03:14:51;;;;;;;16.40;9.40;;;-0.40;1.00;;;;;;7378560;19;20026;-68
2023/11/29 03:17:21;;;;;;;17.63;9.43;;;-0.40;1.00;;;;;;7377333;19;20090;-69
2023/11/29 03:19:54;;;;;;;17.08;8.90;;;-0.30;1.00;;;;;;7377725;19;20632;-68
2023/11/29 03:22:24;;;;;;;15.35;9.00;;;-0.30;1.00;;;;;;7378195;19;20646;-68
2023/11/29 03:24:54;;;;;;;15.57;9.32;;;-0.30;1.00;;;;;;7375712;19;20058;-68
2023/11/29 03:27:27;;;;;;;16.08;9.18;;;-0.20;1.00;;;;;;7376087;19;20037;-67
2023/11/29 03:29:57;;;;;;;15.80;9.30;;;-0.20;1.00;;;;;;7377953;19;20022;-68
2023/11/29 03:32:28;;;;;;;13.63;7.93;;;-0.20;1.00;;;;;;7377178;19;20007;-68
2023/11/29 03:34:58;;;;;;;14.95;8.63;;;-0.20;1.00;;;;;;7397716;19;20010;-67
2023/11/29 03:37:26;;;;;;;14.75;8.30;;;-0.10;1.00;;;;;;7397214;19;20021;-68
2023/11/29 03:39:59;;;;;;;14.15;8.65;;;-0.20;1.00;;;;;;7377103;19;20027;-69
2023/11/29 03:42:32;;;;;;;13.18;8.05;;;-0.10;1.00;;;;;;7378139;19;20381;-69
2023/11/29 03:45:03;;;;;;;13.90;8.95;;;-0.10;1.00;;;;;;7376044;19;20466;-68
2023/11/29 03:47:33;;;;;;;14.65;8.32;;;-0.10;1.00;;;;;;7376422;19;20482;-69
2023/11/29 03:50:03;;;;;;;13.05;8.10;;;-0.10;1.00;;;;;;7376672;19;20393;-69
2023/11/29 03:52:33;;;;;;;14.27;8.65;;;-0.10;1.00;;;;;;7377520;19;20007;-69
2023/11/29 03:55:04;;;;;;;14.13;8.35;;;-0.20;1.00;;;;;;7374676;19;20014;-69
2023/11/29 03:57:37;;;;;;;13.32;7.78;;;-0.10;1.00;;;;;;7377498;19;20017;-69
2023/11/29 04:00:09;;;;;;;13.48;8.07;;;-0.30;1.00;;;;;;7375840;19;20029;-69
2023/11/29 04:02:39;;;;;;;12.15;7.40;;;-0.30;1.00;;;;;;7378214;19;20014;-69
2023/11/29 04:05:10;;;;;;;13.05;8.23;;;-0.50;1.00;;;;;;7373384;19;20015;-69
2023/11/29 04:07:40;;;;;;;11.93;7.28;;;-0.50;1.00;;;;;;7376650;19;20049;-69
2023/11/29 04:10:11;;;;;;;12.60;6.95;;;-0.60;1.00;;;;;;7376510;19;20027;-69
2023/11/29 04:12:44;;;;;;;13.05;7.22;;;-0.60;1.00;;;;;;7378744;19;20090;-69
2023/11/29 04:15:14;;;;;;;13.68;7.05;;;-0.60;1.00;;;;;;7376656;19;20094;-68
2023/11/29 04:17:44;;;;;;;12.00;7.00;;;-0.70;1.00;;;;;;7378994;19;20014;-68
2023/11/29 04:20:14;;;;;;;14.00;7.10;;;-0.80;1.00;;;;;;7380113;19;20010;-68
2023/11/29 04:22:44;;;;;;;12.05;6.85;;;-0.80;1.00;;;;;;7378933;19;20056;-69
2023/11/29 04:25:14;;;;;;;13.13;6.65;;;-0.80;1.00;;;;;;7375865;19;20011;-68
2023/11/29 04:27:47;;;;;;;13.63;7.53;;;-0.80;1.00;;;;;;7378278;19;20028;-68
2023/11/29 04:30:18;;;;;;;10.93;6.68;;;-0.80;1.00;;;;;;7378343;19;20701;-68
2023/11/29 04:32:49;;;;;;;14.18;7.20;;;-0.80;1.00;;;;;;7378336;19;20002;-67
2023/11/29 04:35:19;;;;;;;10.77;5.97;;;-0.80;1.00;;;;;;7377381;19;20484;-69
2023/11/29 04:37:49;;;;;;;11.85;5.78;;;-0.80;1.00;;;;;;7378319;19;20018;-68
2023/11/29 04:40:20;;;;;;;12.48;7.18;;;-0.80;1.00;;;;;;7376844;19;20018;-68
2023/11/29 04:42:52;;;;;;;10.00;6.03;;;-0.70;1.00;;;;;;7377231;19;20086;-68
2023/11/29 04:45:23;;;;;;;14.25;6.25;;;-0.70;1.00;;;;;;7376930;19;20010;-68
2023/11/29 04:47:53;;;;;;;10.45;6.45;;;-0.70;1.00;;;;;;7376357;19;20363;-68
2023/11/29 04:50:23;;;;;;;11.77;6.45;;;-0.60;1.00;;;;;;7374576;19;20025;-67
2023/11/29 04:52:53;;;;;;;9.73;6.15;;;-0.60;1.00;;;;;;7375697;19;20486;-67
2023/11/29 04:55:23;;;;;;;11.15;6.43;;;-0.60;1.00;;;;;;7375442;19;20018;-68
2023/11/29 04:57:56;;;;;;;11.25;6.43;;;-0.60;1.00;;;;;;7376695;19;20116;-67
2023/11/29 05:00:26;;;;;;;10.05;6.60;;;-0.60;1.00;;;;;;7373631;19;20017;-68
2023/11/29 05:02:56;;;;;;;11.13;6.85;;;-0.50;1.00;;;;;;7376727;19;20014;-67
2023/11/29 05:05:27;;;;;;;11.63;6.85;;;-0.50;1.00;;;;;;7373190;19;20022;-68
2023/11/29 05:07:57;;;;;;;11.48;6.35;;;-0.50;1.00;;;;;;7375753;19;20013;-68
2023/11/29 05:10:27;;;;;;;10.93;6.45;;;-0.50;1.00;;;;;;7374828;19;20022;-68
2023/11/29 05:13:00;;;;;;;11.15;6.20;;;-0.50;1.00;;;;;;7375869;19;20014;-68
2023/11/29 05:15:30;;;;;;;13.95;7.07;;;-0.50;1.00;;;;;;7373756;19;20507;-68
2023/11/29 05:18:03;;;;;;;12.00;6.50;;;-0.40;1.00;;;;;;7375681;19;20011;-68
2023/11/29 05:20:33;;;;;;;12.45;6.88;;;-0.30;1.00;;;;;;7375130;19;20015;-67
2023/11/29 05:23:04;;;;;;;12.18;6.43;;;-0.30;1.00;;;;;;7375356;19;20018;-68
2023/11/29 05:25:34;;;;;;;11.45;6.68;;;-0.30;1.00;;;;;;7374556;19;20022;-68
2023/11/29 05:28:06;;;;;;;12.23;6.85;;;-0.30;1.00;;;;;;7374387;19;20486;-69
2023/11/29 05:30:38;;;;;;;8.98;6.22;;;-0.20;1.00;;;;;;7375965;19;20421;-69
2023/11/29 05:33:09;;;;;;;12.10;7.05;;;-0.20;1.00;;;;;;7374304;19;20014;-69
2023/11/29 05:35:40;;;;;;;10.98;6.32;;;-0.20;1.00;;;;;;7373826;19;20497;-69
2023/11/29 05:38:10;;;;;;;9.50;5.65;;;-0.20;1.00;;;;;;7375486;19;20483;-68
2023/11/29 05:40:40;;;;;;;14.02;7.13;;;-0.20;1.00;;;;;;7375192;19;20010;-69
2023/11/29 05:43:13;;;;;;;10.02;6.03;;;-0.20;1.00;;;;;;7376299;19;20016;-68
2023/11/29 05:45:43;;;;;;;10.93;6.30;;;-0.10;1.00;;;;;;7376846;19;20014;-68
2023/11/29 05:48:13;;;;;;;11.15;6.72;;;-0.10;1.00;;;;;;7377754;19;20032;-68
2023/11/29 05:50:43;;;;;;;10.15;6.28;;;-0.10;1.00;;;;;;7377222;19;20007;-69
2023/11/29 05:53:14;;;;;;;11.85;7.07;;;-0.10;1.00;;;;;;7392635;19;20015;-68
2023/11/29 05:55:45;;;;;;;12.02;7.43;;;-0.10;1.00;;;;;;7397034;19;20039;-68
2023/11/29 05:58:17;;;;;;;11.30;6.65;;;-0.10;1.00;;;;;;7377130;19;20010;-69
2023/11/29 06:00:48;;;;;;;11.10;6.85;;;0.00;1.00;;;;;;7373228;19;20010;-68
2023/11/29 06:03:18;;;;;;;11.23;7.10;;;0.00;1.00;;;;;;7372512;19;20006;-67
2023/11/29 06:05:48;;;;;;;11.13;6.80;;;0.00;1.00;;;;;;7374086;19;20026;-69
2023/11/29 06:08:18;;;;;;;10.55;6.30;;;0.00;1.00;;;;;;7372858;19;20037;-68
2023/11/29 06:10:48;;;;;;;10.38;6.53;;;0.10;1.00;;;;;;7373496;19;20017;-69
2023/11/29 06:13:22;;;;;;;11.63;7.18;;;0.10;1.00;;;;;;7375095;19;20002;-68
2023/11/29 06:15:52;;;;;;;10.38;6.45;;;0.10;1.00;;;;;;7373432;19;20014;-68
2023/11/29 06:18:22;;;;;;;11.30;6.85;;;0.10;1.00;;;;;;7374801;19;20349;-68
2023/11/29 06:20:52;;;;;;;10.48;6.22;;;0.20;1.00;;;;;;7374210;19;20002;-68
2023/11/29 06:23:22;;;;;;;10.27;6.55;;;0.20;1.00;;;;;;7375602;19;20014;-68
2023/11/29 06:25:54;;;;;;;12.10;6.80;;;0.20;1.00;;;;;;7374169;19;20045;-68
2023/11/29 06:28:27;;;;;;;10.85;6.93;;;0.30;1.00;;;;;;7375138;19;20105;-68
2023/11/29 06:30:58;;;;;;;13.75;10.48;;;0.30;1.00;;;;;;7375067;19;20017;-68
2023/11/29 06:33:28;;;;;;;11.00;6.60;;;0.30;1.00;;;;;;7373407;19;20459;-68
2023/11/29 06:35:58;;;;;;;10.15;6.32;;;0.30;1.00;;;;;;7373213;19;20014;-67
2023/11/29 06:38:28;;;;;;;10.50;6.82;;;0.30;1.00;;;;;;7375203;19;20007;-69
2023/11/29 06:40:59;;;;;;;11.30;6.93;;;0.30;1.00;;;;;;7374878;19;20021;-68
2023/11/29 06:43:33;;;;;;;10.60;6.75;;;0.30;1.00;;;;;;7373516;19;20006;-69
2023/11/29 06:46:04;;;;;;;10.13;6.38;;;0.30;1.00;;;;;;7372415;19;20007;-69
2023/11/29 06:48:35;;;;;;;10.40;6.20;;;0.40;1.00;;;;;;7374498;19;20331;-69
2023/11/29 06:51:05;;;;;;;11.27;6.53;;;0.30;1.00;;;;;;7373961;19;20074;-69
2023/11/29 06:53:37;;;;;;;13.38;7.03;;;0.40;1.00;;;;;;7373831;19;20032;-68
2023/11/29 06:56:09;;;;;;;9.77;6.35;;;0.40;1.00;;;;;;7373974;19;20002;-69
2023/11/29 06:58:42;;;;;;;10.60;7.03;;;0.30;1.00;;;;;;7373862;19;20015;-68
2023/11/29 07:01:12;;;;;;;11.18;6.60;;;0.30;1.00;;;;;;7373839;19;20372;-68
2023/11/29 07:03:42;;;;;;;12.10;7.47;;;0.30;1.00;;;;;;7372773;19;20028;-68
2023/11/29 07:06:22;;;;;;;11.13;7.18;;;0.40;1.00;;;;;;7350508;19;20045;-68
2023/11/29 07:08:52;;;;;;;10.00;6.28;;;0.30;1.00;;;;;;7371406;19;20019;-68
2023/11/29 07:11:22;;;;;;;10.25;6.85;;;0.30;1.00;;;;;;7371471;19;20007;-68
2023/11/29 07:13:55;;;;;;;10.48;6.20;;;0.30;1.00;;;;;;7373631;19;20014;-68
2023/11/29 07:16:25;;;;;;;11.10;6.53;;;0.40;1.00;;;;;;7374353;19;20014;-68
2023/11/29 07:18:55;;;;;;;12.48;7.25;;;0.40;1.00;;;;;;7378967;19;20124;-68
2023/11/29 07:21:25;;;;;;;11.02;6.88;;;0.40;1.00;;;;;;7378767;19;20014;-69
2023/11/29 07:23:56;;;;;;;9.45;6.18;;;0.40;1.00;;;;;;7375498;19;20002;-69
2023/11/29 07:26:27;;;;;;;9.85;6.63;;;0.50;1.00;;;;;;7375156;19;20430;-69
2023/11/29 07:29:00;;;;;;;11.50;6.78;;;0.50;1.00;;;;;;7376791;19;20014;-68
2023/11/29 07:31:33;;;;;;;9.93;6.40;;;0.50;1.00;;;;;;7377375;19;20006;-69
2023/11/29 07:34:05;;;;;;;11.93;6.68;;;0.60;1.00;;;;;;7377497;19;20018;-69
2023/11/29 07:36:35;;;;;;;10.10;6.03;;;0.60;1.00;;;;;;7377914;19;20014;-68
2023/11/29 07:39:05;;;;;;;11.55;6.63;;;0.60;1.00;;;;;;7380901;19;20337;-69
2023/11/29 07:41:35;;;;;;;9.95;5.82;;;0.70;1.00;;;;;;7378987;19;20050;-67
2023/11/29 07:44:07;;;;;;;9.10;5.53;;;0.70;1.00;;;;;;7380509;19;20010;-69
2023/11/29 07:46:38;;;;;;;9.85;6.35;;;0.70;1.00;;;;;;7378279;19;20016;-68
2023/11/29 07:49:12;;;;;;;9.23;6.32;;;0.80;1.00;;;;;;7379599;19;20588;-68
2023/11/29 07:51:44;;;;;;;10.65;5.63;;;0.80;1.00;;;;;;7379984;19;20124;-68
2023/11/29 07:54:14;;;;;;;9.57;6.38;;;0.80;1.00;;;;;;7378642;19;20024;-69
2023/11/29 07:56:46;;;;;;;8.80;6.00;;;0.80;1.00;;;;;;7378929;19;20010;-69
2023/11/29 07:59:19;;;;;;;8.50;6.13;;;0.90;1.00;;;;;;7378953;19;20469;-69
2023/11/29 08:01:49;;;;;;;8.90;6.03;;;0.90;1.00;;;;;;7379437;19;20031;-69
2023/11/29 08:04:20;;;;;;;9.68;6.35;;;1.00;1.00;;;;;;7376627;19;20011;-69
2023/11/29 08:06:50;;;;;;;8.88;5.72;;;0.90;1.00;;;;;;7378476;19;20017;-69
2023/11/29 08:09:20;;;;;;;9.40;6.35;;;1.00;1.00;;;;;;7378923;19;20017;-69
2023/11/29 08:11:50;;;;;;;11.75;5.57;;;1.00;1.00;;;;;;7396317;19;20017;-68
2023/11/29 08:14:23;;;;;;;8.65;5.78;;;1.00;1.00;;;;;;7393301;19;20063;-68
2023/11/29 08:16:53;;;;;;;9.48;5.53;;;1.00;1.00;;;;;;7378752;19;20006;-67
2023/11/29 08:19:25;;;;;;;8.90;5.78;;;1.10;1.00;;;;;;7375177;19;20125;-69
2023/11/29 08:21:55;;;;;;;12.60;5.97;;;1.10;1.00;;;;;;7377870;19;20793;-69
2023/11/29 08:24:25;;;;;;;9.13;6.13;;;1.10;1.00;;;;;;7378502;19;20297;-68
2023/11/29 08:26:55;;;;;;;8.77;5.97;;;1.20;1.00;;;;;;7375623;19;20589;-68
2023/11/29 08:29:28;;;;;;;10.20;6.82;;;1.20;1.00;;;;;;7377822;19;20075;-69
2023/11/29 08:31:58;;;;;;;8.45;5.32;;;1.20;1.00;;;;;;7378878;19;20015;-68
2023/11/29 08:34:28;;;;;;;9.65;6.20;;;1.20;1.00;;;;;;7379248;19;20013;-69
2023/11/29 08:36:58;;;;;;;9.55;6.00;;;1.30;1.00;;;;;;7377019;19;20324;-69
2023/11/29 08:39:28;;;;;;;7.85;5.82;;;1.30;1.00;;;;;;7379280;19;20006;-69
2023/11/29 08:42:00;;;;;;;9.02;6.18;;;1.30;1.00;;;;;;7379208;19;20014;-69
2023/11/29 08:44:34;;;;;;;10.07;6.60;;;1.40;1.00;;;;;;7378608;19;20019;-68
2023/11/29 08:47:04;;;;;;;8.40;6.15;;;1.40;1.00;;;;;;7378543;19;20007;-68
2023/11/29 08:49:36;;;;;;;7.93;5.68;;;1.40;1.00;;;;;;7377746;19;20007;-68
2023/11/29 08:52:07;;;;;;;9.00;6.35;;;1.50;1.00;;;;;;7377993;19;20011;-69
2023/11/29 08:54:36;;;;;;;9.18;6.10;;;1.50;1.00;;;;;;7378051;19;20748;-68
2023/11/29 08:57:07;;;;;;;8.82;5.70;;;1.50;1.00;;;;;;7377260;19;20387;-68
2023/11/29 08:59:40;;;;;;;8.00;5.78;;;1.60;1.00;;;;;;7378191;19;20395;-68
2023/11/29 09:02:10;;;;;;;8.07;5.30;;;1.60;1.00;;;;;;7378600;19;20013;-68
2023/11/29 09:04:40;;;;;;;8.52;5.65;;;1.70;1.00;;;;;;7377257;19;20053;-68
2023/11/29 09:07:10;;;;;;;8.75;5.97;;;1.70;1.00;;;;;;7376218;19;20463;-67
2023/11/29 09:09:40;;;;;;;8.30;5.07;;;1.70;1.00;;;;;;7377075;19;20011;-69
2023/11/29 09:12:11;;;;;;;8.73;5.40;;;1.70;1.00;;;;;;7376644;19;20006;-69
2023/11/29 09:14:43;;;;;;;7.53;5.25;;;1.80;1.00;;;;;;7377153;19;20015;-69
2023/11/29 09:17:16;;;;;;;7.07;5.30;;;1.90;1.00;;;;;;7376326;19;20507;-68
2023/11/29 09:19:46;;;;;;;6.88;5.03;;;1.90;1.00;;;;;;7376574;19;20018;-69
2023/11/29 09:22:17;;;;;;;7.97;4.63;;;1.90;1.00;;;;;;7376740;19;20025;-68
2023/11/29 09:24:48;;;;;;;7.25;5.05;;;1.90;1.00;;;;;;7376216;19;20438;-69
2023/11/29 09:27:18;;;;;;;6.78;5.03;;;1.90;1.00;;;;;;7375852;19;20011;-69
2023/11/29 09:29:50;;;;;;;7.22;5.63;;;1.80;1.00;;;;;;7375848;19;20391;-69
2023/11/29 09:32:22;;;;;;;12.15;5.28;;;1.80;1.00;;;;;;7376005;19;20010;-69
2023/11/29 09:34:53;;;;;;;7.15;5.32;;;1.80;1.00;;;;;;7376772;19;20021;-68
2023/11/29 09:37:23;;;;;;;7.18;4.95;;;1.90;1.00;;;;;;7376007;19;20003;-68
2023/11/29 09:39:53;;;;;;;7.45;5.18;;;1.90;1.00;;;;;;7374108;19;20044;-69
2023/11/29 09:42:25;;;;;;;7.13;4.80;;;2.00;1.00;;;;;;7375832;19;20007;-68
2023/11/29 09:44:59;;;;;;;5.90;4.25;;;2.00;1.00;;;;;;7376676;19;20086;-68
2023/11/29 09:47:30;;;;;;;6.05;4.10;;;2.00;1.00;;;;;;7373748;19;20003;-68
2023/11/29 09:50:01;;;;;;;5.35;4.32;;;2.10;1.00;;;;;;7376885;19;20013;-69
2023/11/29 09:52:31;;;;;;;5.53;4.30;;;2.10;1.00;;;;;;7376646;19;20013;-68
2023/11/29 09:55:01;;;;;;;5.88;4.50;;;2.10;1.00;;;;;;7375016;19;20010;-68
2023/11/29 09:57:32;;;;;;;6.43;4.47;;;2.10;1.00;;;;;;7376819;19;20044;-68
2023/11/29 10:00:06;;;;;;;8.30;3.72;;;2.10;1.00;;;;;;7375920;19;20017;-68
2023/11/29 10:02:40;;;;;;;8.27;4.57;;;2.10;1.00;;;;;;7374843;19;20085;-69
2023/11/29 10:05:11;;;;;;;6.15;4.25;;;2.10;1.00;;;;;;7372977;19;20484;-68
2023/11/29 10:07:42;;;;;;;5.35;4.10;;;2.10;1.00;;;;;;7375987;19;20011;-69
2023/11/29 10:10:12;;;;;;;7.20;4.38;;;2.10;1.00;;;;;;7376139;19;20027;-68
2023/11/29 10:12:43;;;;;;;8.52;4.80;;;2.10;1.00;;;;;;7376448;19;20077;-69
2023/11/29 10:15:18;;;;;;;5.65;4.40;;;2.10;1.00;;;;;;7374874;19;20014;-68
2023/11/29 10:17:48;;;;;;;6.32;4.47;;;2.10;1.00;;;;;;7375680;19;20119;-68
2023/11/29 10:20:18;;;;;;;6.18;4.32;;;2.20;1.00;;;;;;7376559;19;20015;-68
2023/11/29 10:22:50;;;;;;;5.53;4.28;;;2.20;1.00;;;;;;7374798;19;20471;-68
2023/11/29 10:25:23;;;;;;;8.02;5.13;;;2.40;1.00;;;;;;7374976;19;20017;-69
2023/11/29 10:27:53;;;;;;;6.45;4.28;;;2.50;1.00;;;;;;7376531;19;20003;-68
2023/11/29 10:30:26;;;;;;;6.78;5.30;;;2.60;1.00;;;;;;7392537;19;20010;-67
2023/11/29 10:32:56;;;;;;;7.50;4.72;;;2.60;1.00;;;;;;7383179;19;20007;-70
2023/11/29 10:35:27;;;;;;;6.75;3.95;;;2.60;1.00;;;;;;7375726;19;20026;-70
2023/11/29 10:38:10;;;;;;;10.45;4.20;;;2.60;1.00;;;;;;7376225;19;20042;-68
2023/11/29 10:40:40;;;;;;;6.03;4.40;;;2.60;1.00;;;;;;7368171;19;20467;-69
2023/11/29 10:43:14;;;;;;;5.90;4.57;;;2.60;1.00;;;;;;7374790;19;20370;-69
2023/11/29 10:45:49;;;;;;;5.55;4.28;;;2.50;1.00;;;;;;7374182;19;20018;-69
2023/11/29 10:48:24;;;;;;;6.25;4.68;;;2.40;1.00;;;;;;7375694;19;20007;-69
2023/11/29 10:50:55;;;;;;;6.95;4.70;;;2.40;1.00;;;;;;7380345;19;20007;-69
2023/11/29 10:53:25;;;;;;;5.38;4.13;;;2.40;1.00;;;;;;7381888;19;20031;-69
2023/11/29 10:55:56;;;;;;;6.78;4.60;;;2.40;1.00;;;;;;7380238;19;20018;-69
2023/11/29 10:58:33;;;;;;;7.85;4.70;;;2.40;1.00;;;;;;7382390;19;20030;-69
2023/11/29 11:01:06;;;;;;;6.20;4.35;;;2.40;1.00;;;;;;7380527;19;20010;-68
2023/11/29 11:03:43;;;;;;;6.72;4.93;;;2.50;1.00;;;;;;7381183;19;20007;-68
2023/11/29 11:06:35;;;;;;;7.57;5.28;;;2.50;1.00;;;;;;7381225;19;20010;-68
2023/11/29 11:09:06;;;;;;;6.15;4.90;;;2.50;1.00;;;;;;7380333;19;20510;-69
2023/11/29 11:11:43;;;;;;;6.90;5.00;;;2.70;1.00;;;;;;7381553;19;20050;-68
2023/11/29 11:14:20;;;;;;;5.50;4.55;;;2.60;1.00;;;;;;7379532;19;20031;-69
2023/11/29 11:17:02;;;;;;;6.82;5.47;;;2.60;1.00;;;;;;7380797;19;20035;-69
2023/11/29 11:19:36;;;;;;;6.65;4.72;;;2.70;1.00;;;;;;7382465;19;20010;-69
2023/11/29 11:22:10;;;;;;;7.50;4.55;;;2.70;1.00;;;;;;7376197;19;20014;-69
2023/11/29 11:25:06;;;;;;;6.20;4.55;;;2.80;1.00;;;;;;7380693;19;20057;-68
2023/11/29 11:27:38;;;;;;;6.35;4.55;;;2.80;1.00;;;;;;7375400;19;20380;-68
2023/11/29 11:30:35;;;;;;;5.80;4.38;;;2.90;1.00;;;;;;7381536;19;20007;-68
2023/11/29 11:33:09;;;;;;;5.38;4.00;;;3.00;1.00;;;;;;7379921;19;20058;-68
2023/11/29 11:35:39;;;;;;;4.50;3.70;;;3.10;1.00;;;;;;7380383;19;20011;-68
2023/11/29 11:38:11;;;;;;;6.63;4.25;;;3.30;1.00;;;;;;7380215;19;20006;-69
2023/11/29 11:40:43;;;;;;;5.88;4.18;;;3.40;1.00;;;;;;7379757;19;20043;-69
2023/11/29 11:43:13;;;;;;;6.78;4.32;;;3.50;1.00;;;;;;7379272;19;20015;-68
2023/11/29 11:45:47;;;;;;;4.63;3.80;;;3.60;1.00;;;;;;7378330;19;20021;-68
2023/11/29 11:48:24;;;;;;;4.82;3.47;;;3.90;1.00;;;;;;7379263;19;20040;-68
2023/11/29 11:50:56;;;;;;;4.90;3.33;;;4.00;1.00;;;;;;7378678;19;20490;-69
2023/11/29 11:53:26;;;;;;;4.43;3.60;;;4.00;1.00;;;;;;7379249;19;20014;-68
2023/11/29 11:55:56;;;;;;;5.05;3.80;;;4.20;1.00;;;;;;7377232;19;20541;-68
2023/11/29 11:58:28;;;;;;;5.22;3.42;;;4.30;1.00;;;;;;7378529;19;20049;-68
2023/11/29 12:00:58;;;;;;;4.68;3.47;;;4.30;1.00;;;;;;7378526;19;20010;-69
2023/11/29 12:03:34;;;;;;;4.10;3.38;;;4.40;1.00;;;;;;7377438;19;20070;-69
2023/11/29 12:06:08;;;;;;;3.50;2.85;;;4.30;1.00;;;;;;7374629;19;20019;-69
2023/11/29 12:08:40;;;;;;;4.20;3.15;;;4.40;1.00;;;;;;7378879;19;20010;-68
2023/11/29 12:11:10;;;;;;;3.92;2.95;;;4.50;1.00;;;;;;7377461;19;20002;-69
2023/11/29 12:13:40;;;;;;;3.90;2.78;;;4.40;1.00;;;;;;7377745;19;20011;-69
2023/11/29 12:16:15;;;;;;;3.70;2.80;;;4.20;1.00;;;;;;7373137;19;20014;-69
2023/11/29 12:18:48;;;;;;;4.57;2.90;;;4.40;1.00;;;;;;7379447;19;20021;-69
2023/11/29 12:21:19;;;;;;;3.88;2.70;;;4.40;1.00;;;;;;7377778;19;20010;-69
2023/11/29 12:23:49;;;;;;;3.53;2.28;;;4.50;1.00;;;;;;7378118;19;20025;-69
2023/11/29 12:26:20;;;;;;;8.27;2.67;;;4.50;1.00;;;;;;7377448;19;20074;-69
2023/11/29 12:28:52;;;;;;;6.32;2.88;;;4.50;1.00;;;;;;7377977;19;20078;-68
2023/11/29 12:31:22;;;;;;;3.95;2.28;;;4.40;1.00;;;;;;7377041;19;20014;-68
2023/11/29 12:33:54;;;;;;;3.03;2.28;;;4.40;1.00;;;;;;7378868;19;20072;-68
2023/11/29 12:36:24;;;;;;;4.70;2.63;;;4.30;1.00;;;;;;7377336;19;20086;-68
2023/11/29 12:38:54;;;;;;;3.20;2.35;;;4.30;1.00;;;;;;7378539;19;20104;-68
2023/11/29 12:41:24;;;;;;;3.42;2.67;;;4.30;1.00;;;;;;7377236;19;20011;-68
2023/11/29 12:43:54;;;;;;;3.88;2.75;;;4.20;1.00;;;;;;7377655;19;20360;-68
2023/11/29 12:46:24;;;;;;;3.50;2.53;;;4.20;1.00;;;;;;7382836;19;20013;-68
2023/11/29 12:48:57;;;;;;;3.35;2.58;;;4.20;1.00;;;;;;7395274;19;20014;-68
2023/11/29 12:51:27;;;;;;;6.63;2.30;;;4.10;1.00;;;;;;7379724;19;20033;-68
2023/11/29 12:53:58;;;;;;;2.90;2.35;;;4.10;1.00;;;;;;7373655;19;20022;-69
2023/11/29 12:56:45;;;;;;;4.95;2.40;;;4.00;1.00;;;;;;7371280;19;20015;-68
2023/11/29 12:59:15;;;;;;;4.15;2.47;;;4.00;1.00;;;;;;7377473;19;20034;-68
2023/11/29 13:01:45;;;;;;;6.50;2.70;;;4.10;1.00;;;;;;7377960;19;20014;-69
2023/11/29 13:04:18;;;;;;;3.58;2.60;;;4.10;1.00;;;;;;7376893;19;20007;-69
2023/11/29 13:06:48;;;;;;;3.20;2.85;;;4.20;1.00;;;;;;7376798;19;20014;-69
2023/11/29 13:09:19;;;;;;;4.50;3.05;;;4.30;1.00;;;;;;7378113;19;20021;-70
2023/11/29 13:11:49;;;;;;;3.30;2.75;;;4.30;1.00;;;;;;7377082;19;20010;-69
2023/11/29 13:14:19;;;;;;;5.88;2.65;;;4.40;1.00;;;;;;7375874;19;20010;-69
2023/11/29 13:16:49;;;;;;;5.38;2.78;;;4.50;1.00;;;;;;7376939;19;20383;-69